Terminal Aerodrome Forecast
Issued by NWS Wilmington, OH

Current Version | Previous Version | Graphics & Text | Print | Product List | Glossary On
Versions: 1 2 3 4 5 6 7 8 9 10 11 12 13 14 15 16 17 18 19 20 21 22 23 24 25 26
000
FTUS41 KILN 190542
TAFCVG
TAF
KCVG 190542Z 1906/2012 24006KT P6SM OVC012
      TEMPO 1906/1908 5SM BR OVC008
     FM190800 24005KT 5SM BR OVC011
     FM191000 25004KT 2SM BR OVC008
     FM191500 26006KT P6SM BKN015
     FM192000 23006KT P6SM SCT025
     FM200000 22003KT P6SM SCT250
     FM200600 00000KT 4SM BR SCT250=

USA.gov is the U.S. government's official web portal to all federal, state and local government web resources and services.